createdAt,value
2022-08-30T00:00:30.586Z,15.55
2022-08-30T00:03:00.836Z,15.53
2022-08-30T00:05:31.243Z,15.47
2022-08-30T00:08:02.432Z,15.50
2022-08-30T00:10:30.906Z,15.49
2022-08-30T00:12:59.999Z,15.44
2022-08-30T00:15:30.489Z,15.47
2022-08-30T00:17:58.535Z,15.43
2022-08-30T00:20:29.714Z,15.44
2022-08-30T00:23:06.341Z,15.43
2022-08-30T00:25:35.661Z,15.47
2022-08-30T00:28:04.110Z,15.46
2022-08-30T00:30:32.092Z,15.44
2022-08-30T00:33:10.658Z,15.44
2022-08-30T00:35:39.972Z,15.43
2022-08-30T00:38:10.681Z,15.43
2022-08-30T00:40:40.094Z,15.40
2022-08-30T00:43:13.946Z,15.36
2022-08-30T00:45:42.570Z,15.33
2022-08-30T00:48:20.373Z,15.28
2022-08-30T00:50:51.773Z,15.13
2022-08-30T00:53:24.704Z,15.16
2022-08-30T00:55:55.034Z,15.16
2022-08-30T00:58:30.453Z,15.13
2022-08-30T01:01:01.366Z,15.10
2022-08-30T01:03:30.933Z,15.07
2022-08-30T01:06:01.918Z,15.06
2022-08-30T01:08:34.167Z,15.04
2022-08-30T01:11:04.736Z,15.01
2022-08-30T01:13:35.766Z,14.98
2022-08-30T01:16:05.070Z,14.98
2022-08-30T01:18:33.644Z,15.01
2022-08-30T01:21:10.719Z,14.98
2022-08-30T01:23:44.133Z,14.98
2022-08-30T01:26:12.777Z,14.93
2022-08-30T01:28:46.994Z,14.83
2022-08-30T01:31:15.218Z,14.83
2022-08-30T01:33:43.140Z,14.81
2022-08-30T01:36:14.098Z,14.77
2022-08-30T01:38:47.389Z,14.72
2022-08-30T01:41:18.228Z,14.68
2022-08-30T01:43:46.547Z,14.63
2022-08-30T01:46:16.898Z,14.55
2022-08-30T01:48:52.018Z,14.51
2022-08-30T01:51:26.497Z,14.48
2022-08-30T01:53:59.941Z,14.44
2022-08-30T01:56:30.062Z,14.43
2022-08-30T01:59:02.551Z,14.38
2022-08-30T02:01:34.161Z,14.32
2022-08-30T02:04:02.786Z,14.30
2022-08-30T02:06:30.863Z,14.27
2022-08-30T02:09:01.063Z,14.21
2022-08-30T02:11:28.977Z,14.18
2022-08-30T02:13:59.862Z,14.10
2022-08-30T02:16:27.981Z,14.10
2022-08-30T02:18:59.579Z,14.04
2022-08-30T02:21:28.692Z,14.06
2022-08-30T02:23:56.946Z,14.02
2022-08-30T02:26:29.253Z,14.03
2022-08-30T02:28:59.094Z,14.01
2022-08-30T02:31:27.363Z,13.98
2022-08-30T02:33:55.687Z,13.98
2022-08-30T02:36:24.621Z,14.00
2022-08-30T02:38:53.398Z,14.00
2022-08-30T02:41:23.411Z,13.91
2022-08-30T02:43:58.351Z,14.11
2022-08-30T02:46:26.887Z,14.22
2022-08-30T02:49:05.651Z,14.33
2022-08-30T02:51:41.497Z,14.47
2022-08-30T02:54:09.518Z,14.55
2022-08-30T02:56:37.628Z,14.55
2022-08-30T02:59:07.111Z,14.48
2022-08-30T03:01:36.331Z,14.42
2022-08-30T03:04:04.543Z,14.35
2022-08-30T03:06:34.783Z,14.30
2022-08-30T03:09:03.138Z,14.27
2022-08-30T03:11:31.182Z,14.26
2022-08-30T03:13:59.455Z,14.28
2022-08-30T03:16:28.934Z,14.16
2022-08-30T03:18:58.830Z,14.07
2022-08-30T03:21:26.807Z,13.95
2022-08-30T03:24:10.691Z,13.82
2022-08-30T03:26:46.059Z,13.75
2022-08-30T03:29:14.648Z,13.75
2022-08-30T03:31:53.018Z,13.75
2022-08-30T03:34:22.775Z,13.79
2022-08-30T03:36:51.140Z,13.80
2022-08-30T03:39:23.429Z,13.80
2022-08-30T03:41:52.297Z,13.79
2022-08-30T03:44:20.816Z,13.81
2022-08-30T03:46:51.668Z,13.73
2022-08-30T03:49:20.623Z,13.81
2022-08-30T03:51:48.909Z,13.83
2022-08-30T03:54:17.191Z,13.70
2022-08-30T03:56:47.598Z,13.67
2022-08-30T03:59:18.857Z,13.65
2022-08-30T04:01:48.018Z,13.64
2022-08-30T04:04:20.891Z,13.63
2022-08-30T04:06:50.036Z,13.67
2022-08-30T04:09:27.305Z,13.68
2022-08-30T04:11:55.395Z,13.59
2022-08-30T04:14:23.494Z,13.50
2022-08-30T04:16:51.535Z,13.48
2022-08-30T04:19:23.376Z,13.47
2022-08-30T04:21:51.360Z,13.47
2022-08-30T04:24:22.416Z,13.41
2022-08-30T04:26:50.464Z,13.47
2022-08-30T04:29:19.092Z,13.54
2022-08-30T04:31:47.524Z,13.61
2022-08-30T04:34:16.331Z,13.65
2022-08-30T04:36:49.984Z,13.78
2022-08-30T04:39:21.637Z,13.79
2022-08-30T04:41:49.556Z,13.86
2022-08-30T04:44:19.623Z,13.91
2022-08-30T04:46:47.958Z,13.91
2022-08-30T04:49:15.927Z,13.97
2022-08-30T04:51:45.342Z,13.97
2022-08-30T04:54:13.421Z,14.01
2022-08-30T04:56:41.620Z,14.06
2022-08-30T04:59:13.297Z,14.18
2022-08-30T05:01:44.617Z,14.24
2022-08-30T05:04:16.854Z,14.33
2022-08-30T05:06:46.429Z,14.39
2022-08-30T05:09:23.299Z,14.43
2022-08-30T05:11:51.257Z,14.44
2022-08-30T05:14:19.520Z,14.43
2022-08-30T05:18:21.426Z,14.48
2022-08-30T05:20:49.508Z,14.46
2022-08-30T05:23:17.901Z,14.44
2022-08-30T05:25:47.064Z,14.41
2022-08-30T05:28:19.369Z,14.43
2022-08-30T05:30:48.104Z,14.41
2022-08-30T05:33:16.029Z,14.44
2022-08-30T05:35:48.033Z,14.46
2022-08-30T05:38:16.180Z,14.53
2022-08-30T05:40:47.886Z,14.57
2022-08-30T05:43:16.142Z,14.57
2022-08-30T05:58:19.805Z,14.48
2022-08-30T06:00:47.773Z,14.69
2022-08-30T06:03:21.963Z,14.79
2022-08-30T06:05:49.786Z,14.87
2022-08-30T06:08:24.514Z,14.91
2022-08-30T06:11:02.079Z,15.00
2022-08-30T06:13:32.334Z,15.07
2022-08-30T06:16:00.426Z,15.13
2022-08-30T06:18:28.921Z,15.04
2022-08-30T06:20:56.922Z,15.11
2022-08-30T06:23:28.879Z,15.27
2022-08-30T06:25:56.852Z,15.19
2022-08-30T06:28:33.662Z,15.25
2022-08-30T06:31:03.218Z,15.25
2022-08-30T06:33:33.553Z,15.22
2022-08-30T06:36:05.965Z,15.20
2022-08-30T06:38:37.038Z,15.18
2022-08-30T06:41:07.922Z,15.17
2022-08-30T06:43:44.450Z,15.41
2022-08-30T06:46:22.707Z,15.69
2022-08-30T06:48:50.432Z,15.86
2022-08-30T06:51:21.777Z,15.76
2022-08-30T06:53:50.979Z,15.58
2022-08-30T06:56:19.935Z,15.49
2022-08-30T06:58:50.657Z,15.50
2022-08-30T07:01:23.556Z,15.53
2022-08-30T07:03:53.123Z,15.44
2022-08-30T07:06:23.035Z,15.37
2022-08-30T07:13:11.399Z,15.42
2022-08-30T07:15:45.184Z,15.41
2022-08-30T07:22:47.223Z,15.37
2022-08-30T07:25:26.984Z,15.35
2022-08-30T07:27:57.265Z,15.45
2022-08-30T07:30:29.117Z,15.55
2022-08-30T07:32:57.162Z,15.61
2022-08-30T07:35:25.496Z,15.58
2022-08-30T07:38:13.718Z,15.67
2022-08-30T07:40:42.594Z,15.79
2022-08-30T07:43:26.530Z,15.93
2022-08-30T07:45:54.720Z,16.18
2022-08-30T07:48:23.293Z,16.38
2022-08-30T07:50:59.007Z,16.52
2022-08-30T07:53:30.203Z,16.44
2022-08-30T07:55:58.303Z,16.38
2022-08-30T07:58:30.997Z,16.44
2022-08-30T08:00:59.458Z,16.59
2022-08-30T08:03:31.412Z,16.52
2022-08-30T08:06:04.559Z,16.40
2022-08-30T08:08:34.071Z,16.45
2022-08-30T08:11:07.914Z,16.82
2022-08-30T08:13:36.650Z,16.93
2022-08-30T08:16:26.064Z,16.79
2022-08-30T08:18:55.529Z,16.74
2022-08-30T08:21:24.721Z,16.76
2022-08-30T08:23:56.753Z,16.92
2022-08-30T08:26:24.912Z,16.90
2022-08-30T08:28:53.245Z,16.87
2022-08-30T08:31:24.028Z,17.06
2022-08-30T08:33:56.272Z,17.24
2022-08-30T08:36:34.576Z,17.29
2022-08-30T08:39:06.443Z,17.09
2022-08-30T08:41:54.880Z,17.07
2022-08-30T08:44:41.095Z,16.96
2022-08-30T08:47:14.744Z,16.98
2022-08-30T08:49:46.584Z,16.95
2022-08-30T08:52:45.640Z,17.07
2022-08-30T08:55:17.245Z,16.98
2022-08-30T08:57:45.521Z,17.12
2022-08-30T09:00:15.908Z,17.06
2022-08-30T09:02:46.905Z,17.13
2022-08-30T09:05:20.243Z,17.30
2022-08-30T09:07:54.302Z,17.31
2022-08-30T09:10:49.279Z,17.25
2022-08-30T09:13:25.928Z,17.27
2022-08-30T09:15:59.597Z,17.10
2022-08-30T09:18:45.652Z,16.99
2022-08-30T09:21:14.641Z,16.97
2022-08-30T09:23:51.058Z,17.01
2022-08-30T09:30:33.846Z,16.91
2022-08-30T09:33:04.526Z,16.90
2022-08-30T09:35:37.094Z,17.10
2022-08-30T09:38:07.828Z,17.16
2022-08-30T09:40:39.819Z,17.17
2022-08-30T09:43:12.002Z,17.33
2022-08-30T09:45:45.042Z,17.48
2022-08-30T09:48:31.067Z,17.68
2022-08-30T09:51:17.897Z,17.70
2022-08-30T09:56:53.348Z,17.29
2022-08-30T09:59:41.034Z,17.42
2022-08-30T10:02:28.804Z,17.55
2022-08-30T10:05:07.354Z,17.52
2022-08-30T10:07:54.865Z,17.52
2022-08-30T10:10:37.581Z,17.39
2022-08-30T10:13:23.886Z,17.26
2022-08-30T10:15:59.469Z,17.28
2022-08-30T10:18:35.942Z,17.49
2022-08-30T10:21:19.104Z,17.99
2022-08-30T10:23:53.157Z,18.49
2022-08-30T10:26:30.034Z,18.71
2022-08-30T10:29:02.586Z,18.80
2022-08-30T10:31:41.239Z,18.74
2022-08-30T10:34:20.349Z,18.57
2022-08-30T10:37:03.064Z,18.40
2022-08-30T10:39:39.364Z,18.35
2022-08-30T10:42:18.844Z,18.50
2022-08-30T10:44:50.938Z,18.53
2022-08-30T10:47:36.565Z,18.80
2022-08-30T10:50:13.462Z,19.10
2022-08-30T10:52:48.629Z,19.23
2022-08-30T10:55:24.282Z,19.59
2022-08-30T10:57:54.416Z,19.64
2022-08-30T11:00:27.922Z,19.34
2022-08-30T11:03:40.008Z,19.20
2022-08-30T11:06:17.998Z,19.36
2022-08-30T11:09:30.781Z,19.70
2022-08-30T11:12:20.775Z,20.12
2022-08-30T11:14:51.952Z,20.47
2022-08-30T11:17:28.900Z,20.46
2022-08-30T11:20:00.602Z,20.63
2022-08-30T11:22:36.866Z,20.72
2022-08-30T11:25:16.177Z,20.48
2022-08-30T11:27:51.489Z,20.42
2022-08-30T11:30:47.545Z,20.28
2022-08-30T11:33:50.276Z,20.26
2022-08-30T11:36:54.741Z,20.37
2022-08-30T11:39:52.719Z,20.34
2022-08-30T11:42:34.710Z,20.31
2022-08-30T11:45:40.612Z,20.70
2022-08-30T11:48:37.313Z,20.67
2022-08-30T12:09:02.606Z,21.34
2022-08-30T12:12:04.297Z,21.36
2022-08-30T12:49:38.180Z,22.50
2022-08-30T12:52:18.584Z,22.66
2022-08-30T12:54:50.053Z,22.63
2022-08-30T12:57:41.991Z,22.64
2022-08-30T13:00:24.493Z,22.75
2022-08-30T13:03:16.035Z,22.90
2022-08-30T13:05:54.989Z,22.88
2022-08-30T13:08:27.636Z,22.83
2022-08-30T13:11:08.366Z,23.08
2022-08-30T13:13:45.832Z,23.18
2022-08-30T13:16:36.831Z,23.13
2022-08-30T13:19:39.724Z,23.08
2022-08-30T13:22:27.025Z,22.98
2022-08-30T13:25:01.635Z,23.14
2022-08-30T13:27:37.016Z,23.34
2022-08-30T13:30:13.551Z,23.20
2022-08-30T13:32:45.861Z,23.09
2022-08-30T13:35:19.905Z,23.06
2022-08-30T13:37:51.413Z,23.30
2022-08-30T13:40:22.678Z,23.45
2022-08-30T13:42:52.024Z,23.56
2022-08-30T13:48:12.325Z,23.93
2022-08-30T13:50:40.710Z,24.17
2022-08-30T13:53:51.952Z,24.36
2022-08-30T13:56:14.064Z,24.34
2022-08-30T13:58:46.068Z,24.07
2022-08-30T14:01:17.594Z,23.77
2022-08-30T14:09:31.515Z,23.28
2022-08-30T14:12:00.184Z,23.27
2022-08-30T14:14:41.876Z,23.39
2022-08-30T14:17:12.571Z,23.92
2022-08-30T14:19:41.053Z,24.10
2022-08-30T14:22:15.365Z,24.11
2022-08-30T14:24:44.702Z,23.98
2022-08-30T14:27:15.804Z,24.15
2022-08-30T14:29:45.728Z,24.26
2022-08-30T14:32:14.224Z,24.39
2022-08-30T14:34:44.168Z,24.30
2022-08-30T14:37:18.572Z,23.96
2022-08-30T14:39:49.107Z,23.56
2022-08-30T14:42:20.151Z,23.31
2022-08-30T14:44:56.198Z,23.18
2022-08-30T14:47:29.558Z,23.04
2022-08-30T14:50:00.796Z,23.13
2022-08-30T14:52:33.176Z,23.29
2022-08-30T14:55:08.993Z,23.43
2022-08-30T14:57:38.497Z,23.65
2022-08-30T15:00:10.258Z,23.77
2022-08-30T15:02:40.876Z,23.90
2022-08-30T15:05:09.604Z,23.97
2022-08-30T15:07:37.641Z,23.92
2022-08-30T15:10:09.800Z,23.97
2022-08-30T15:12:37.752Z,24.06
2022-08-30T15:15:07.009Z,24.19
2022-08-30T15:17:37.059Z,24.22
2022-08-30T15:20:10.558Z,24.21
2022-08-30T15:22:38.594Z,24.25
2022-08-30T15:25:08.852Z,24.34
2022-08-30T15:27:37.463Z,24.20
2022-08-30T15:30:16.145Z,23.94
2022-08-30T15:32:47.698Z,23.61
2022-08-30T15:35:16.817Z,23.33
2022-08-30T15:37:44.900Z,23.05
2022-08-30T15:40:14.459Z,22.92
2022-08-30T15:42:48.307Z,22.79
2022-08-30T15:45:17.893Z,22.64
2022-08-30T15:47:48.997Z,22.52
2022-08-30T15:50:17.979Z,22.36
2022-08-30T15:52:53.080Z,22.36
2022-08-30T15:55:22.695Z,22.30
2022-08-30T15:57:51.084Z,22.31
2022-08-30T16:00:26.955Z,22.38
2022-08-30T16:02:58.064Z,22.44
2022-08-30T16:05:29.319Z,22.53
2022-08-30T16:07:57.203Z,22.51
2022-08-30T16:10:26.525Z,22.46
2022-08-30T16:13:07.223Z,22.48
2022-08-30T16:15:35.555Z,22.47
2022-08-30T16:18:10.626Z,22.33
2022-08-30T16:20:45.969Z,22.36
2022-08-30T16:23:17.161Z,22.35
2022-08-30T16:25:46.750Z,22.22
2022-08-30T16:28:16.257Z,22.17
2022-08-30T16:30:46.076Z,22.13
2022-08-30T16:33:14.180Z,22.02
2022-08-30T16:35:51.499Z,22.04
2022-08-30T16:38:20.718Z,21.97
2022-08-30T16:40:50.151Z,21.93
2022-08-30T16:43:31.750Z,21.88
2022-08-30T16:46:02.068Z,21.81
2022-08-30T16:48:30.721Z,21.85
2022-08-30T16:51:25.252Z,21.81
2022-08-30T16:53:58.415Z,21.74
2022-08-30T16:56:29.724Z,21.66
2022-08-30T16:59:01.987Z,21.62
2022-08-30T17:01:32.314Z,21.60
2022-08-30T17:04:02.924Z,21.53
2022-08-30T17:06:30.996Z,21.46
2022-08-30T17:09:07.465Z,21.41
2022-08-30T17:11:40.153Z,21.32
2022-08-30T17:14:10.073Z,21.29
2022-08-30T17:16:38.466Z,21.24
2022-08-30T17:19:11.670Z,21.18
2022-08-30T17:21:39.631Z,21.13
2022-08-30T17:24:07.818Z,21.08
2022-08-30T17:26:38.432Z,20.99
2022-08-30T17:29:07.745Z,20.97
2022-08-30T17:31:37.443Z,20.95
2022-08-30T17:34:09.241Z,20.91
2022-08-30T17:36:39.447Z,20.85
2022-08-30T17:39:11.959Z,20.80
2022-08-30T17:41:45.647Z,20.71
2022-08-30T17:44:20.446Z,20.71
2022-08-30T17:46:48.550Z,20.68
2022-08-30T17:49:17.107Z,20.64
2022-08-30T17:51:56.941Z,20.59
2022-08-30T17:54:25.884Z,20.56
2022-08-30T17:57:01.704Z,20.52
2022-08-30T17:59:36.934Z,20.46
2022-08-30T18:02:05.279Z,20.42
2022-08-30T18:04:34.777Z,20.37
2022-08-30T18:07:12.290Z,20.32
2022-08-30T18:09:42.146Z,20.29
2022-08-30T18:12:12.959Z,20.26
2022-08-30T18:14:42.104Z,20.23
2022-08-30T18:17:10.152Z,20.19
2022-08-30T18:19:46.156Z,20.11
2022-08-30T18:22:15.251Z,20.03
2022-08-30T18:24:43.336Z,20.01
2022-08-30T18:27:13.337Z,19.92
2022-08-30T18:29:42.051Z,19.91
2022-08-30T18:32:11.588Z,19.73
2022-08-30T18:34:42.806Z,19.80
2022-08-30T18:37:12.351Z,19.76
2022-08-30T18:39:41.530Z,19.73
2022-08-30T18:42:10.119Z,19.68
2022-08-30T18:44:40.221Z,19.65
2022-08-30T18:47:11.612Z,19.58
2022-08-30T18:49:40.436Z,19.53
2022-08-30T18:52:10.930Z,19.50
2022-08-30T18:54:40.544Z,19.32
2022-08-30T18:57:09.791Z,19.36
2022-08-30T18:59:41.895Z,19.32
2022-08-30T19:02:12.798Z,19.26
2022-08-30T19:04:42.854Z,19.21
2022-08-30T19:07:13.687Z,19.14
2022-08-30T19:09:43.582Z,19.11
2022-08-30T19:12:13.731Z,19.07
2022-08-30T19:14:43.317Z,19.02
2022-08-30T19:17:11.412Z,18.96
2022-08-30T19:19:48.351Z,18.93
2022-08-30T19:22:18.943Z,18.90
2022-08-30T19:24:47.516Z,18.85
2022-08-30T19:27:16.130Z,18.80
2022-08-30T19:29:45.531Z,18.76
2022-08-30T19:32:13.934Z,18.72
2022-08-30T19:34:42.193Z,18.65
2022-08-30T19:37:14.787Z,18.62
2022-08-30T19:39:47.290Z,18.53
2022-08-30T19:42:15.406Z,18.53
2022-08-30T19:44:43.316Z,18.48
2022-08-30T19:47:13.272Z,18.46
2022-08-30T19:49:41.207Z,18.40
2022-08-30T19:52:09.919Z,18.39
2022-08-30T19:54:38.083Z,18.33
2022-08-30T19:57:06.432Z,18.30
2022-08-30T19:59:34.759Z,18.10
2022-08-30T20:02:03.923Z,18.22
2022-08-30T20:04:35.689Z,18.19
2022-08-30T20:07:03.815Z,18.15
2022-08-30T20:09:35.042Z,18.09
2022-08-30T20:12:06.308Z,18.07
2022-08-30T20:14:34.981Z,18.01
2022-08-30T20:17:03.202Z,17.93
2022-08-30T20:19:31.755Z,17.90
2022-08-30T20:22:05.627Z,17.92
2022-08-30T20:24:39.410Z,17.89
2022-08-30T20:27:12.588Z,17.86
2022-08-30T20:29:42.812Z,17.74
2022-08-30T20:32:12.640Z,17.55
2022-08-30T20:34:40.676Z,17.76
2022-08-30T20:37:10.622Z,17.71
2022-08-30T20:39:39.219Z,17.67
2022-08-30T20:42:07.729Z,17.64
2022-08-30T20:44:38.298Z,17.61
2022-08-30T20:47:10.347Z,17.43
2022-08-30T20:49:38.566Z,17.52
2022-08-30T20:52:09.781Z,17.44
2022-08-30T20:54:42.132Z,17.42
2022-08-30T20:57:10.199Z,17.39
2022-08-30T20:59:40.216Z,17.35
2022-08-30T21:02:08.224Z,17.32
2022-08-30T21:04:37.875Z,17.27
2022-08-30T21:07:06.273Z,17.24
2022-08-30T21:09:37.904Z,17.20
2022-08-30T21:12:07.469Z,17.15
2022-08-30T21:14:38.248Z,17.12
2022-08-30T21:17:06.564Z,17.09
2022-08-30T21:19:34.922Z,16.99
2022-08-30T21:22:03.754Z,17.01
2022-08-30T21:24:52.836Z,17.00
2022-08-30T21:27:22.390Z,16.96
2022-08-30T21:30:08.052Z,16.96
2022-08-30T21:32:36.217Z,16.93
2022-08-30T21:35:21.716Z,16.92
2022-08-30T21:37:52.720Z,16.90
2022-08-30T21:40:21.592Z,16.81
2022-08-30T21:42:56.016Z,16.83
2022-08-30T21:45:23.985Z,16.78
2022-08-30T21:47:52.325Z,16.77
2022-08-30T21:50:23.656Z,16.76
2022-08-30T21:52:52.276Z,16.74
2022-08-30T21:55:20.816Z,16.75
2022-08-30T21:57:50.935Z,16.76
2022-08-30T22:00:21.172Z,16.77
2022-08-30T22:02:56.109Z,16.75
2022-08-30T22:05:28.299Z,16.75
2022-08-30T22:07:56.703Z,16.75
2022-08-30T22:10:32.395Z,16.62
2022-08-30T22:13:03.672Z,16.75
2022-08-30T22:15:32.880Z,16.76
2022-08-30T22:18:01.650Z,16.66
2022-08-30T22:20:32.723Z,16.66
2022-08-30T22:23:07.885Z,16.73
2022-08-30T22:25:50.651Z,16.73
2022-08-30T22:28:21.347Z,16.69
2022-08-30T22:30:51.759Z,16.69
2022-08-30T22:33:19.961Z,16.68
2022-08-30T22:35:48.631Z,16.61
2022-08-30T22:38:16.535Z,16.64
2022-08-30T22:40:48.196Z,16.63
2022-08-30T22:43:17.449Z,16.62
2022-08-30T22:45:59.872Z,16.59
2022-08-30T22:48:33.102Z,16.56
2022-08-30T22:51:01.283Z,16.56
2022-08-30T22:53:30.836Z,16.56
2022-08-30T22:55:58.799Z,16.51
2022-08-30T22:58:27.047Z,16.49
2022-08-30T23:00:59.281Z,16.42
2022-08-30T23:03:30.455Z,16.40
2022-08-30T23:05:58.481Z,16.35
2022-08-30T23:08:26.967Z,16.33
2022-08-30T23:10:57.014Z,16.31
2022-08-30T23:13:26.098Z,16.30
2022-08-30T23:16:00.267Z,16.29
2022-08-30T23:18:29.687Z,16.27
2022-08-30T23:21:04.968Z,16.29
2022-08-30T23:23:57.454Z,16.26
2022-08-30T23:26:43.924Z,16.26
2022-08-30T23:29:31.101Z,16.25
2022-08-30T23:32:16.700Z,16.28
2022-08-30T23:35:03.940Z,16.30
2022-08-30T23:37:53.092Z,16.31
2022-08-30T23:40:42.931Z,16.29
2022-08-30T23:43:29.183Z,16.30
2022-08-30T23:46:17.026Z,16.28
2022-08-30T23:49:08.718Z,16.27
2022-08-30T23:51:56.793Z,16.23
2022-08-30T23:54:45.802Z,16.22
2022-08-30T23:57:31.835Z,16.22
